MSC Mara — V7NF9 — position and weather

sailwx.info

Track history (hours):
 
Tides and Currents Weather Stations Pressure Air Temp Water Temp Dewpoint Dewpoint Depression Visibility Wind Speed Wind Dir Waves Ship Positions

MSC Mara

Last reported at 2018-Feb-18 01:52 UTC. Time now 2018-Feb-21 07:28 UTC.
Position N 34°11' W 077°57'.

Length 294 m; draft 11.5 m.

Type: Ship (hazmat cat C). MMSI: 538002955.

Date/timePositionNaut miles runAvg speedWind from/ knotsBaromVisibWave heightAir tempDewpointWater temp
2018-Feb-18 01:52N 34°11' W 077°57'2 5.3
2018-Feb-18 01:30N 34°13' W 077°57'1 2.7
2018-Feb-18 01:00N 34°11' W 077°57'0 0.0
2018-Feb-18 00:30N 34°11' W 077°57'0 0.0
2018-Feb-18 00:00N 34°11' W 077°57'0 0.0
2018-Feb-17 23:30N 34°11' W 077°57'0 0.0
2018-Feb-17 22:56N 34°11' W 077°57'0 0.0
2018-Feb-17 22:29N 34°11' W 077°57'0 0.0
2018-Feb-17 21:59N 34°11' W 077°57'0 0.0
2018-Feb-17 21:26N 34°11' W 077°57'0 0.0
2018-Feb-17 20:59N 34°11' W 077°57'0 0.0
2018-Feb-17 20:26N 34°11' W 077°57'0 0.0
2018-Feb-17 19:56N 34°11' W 077°57'0 0.0
2018-Feb-17 19:29N 34°11' W 077°57'0 0.0
2018-Feb-17 18:59N 34°11' W 077°57'0 0.0
2018-Feb-17 18:26N 34°11' W 077°57'0 0.0
2018-Feb-17 17:59N 34°11' W 077°57'0 0.0
2018-Feb-17 17:26N 34°11' W 077°57'0 0.1
2018-Feb-17 16:59N 34°11' W 077°57'0 0.1
2018-Feb-17 16:26N 34°11' W 077°57'0 0.0
2018-Feb-17 15:59N 34°11' W 077°57'0 0.0
2018-Feb-17 15:26N 34°11' W 077°57'0 0.0
2018-Feb-17 14:59N 34°11' W 077°57'0 0.0
2018-Feb-17 14:26N 34°11' W 077°57'0 0.0
2018-Feb-17 13:56N 34°11' W 077°57'0 0.0
2018-Feb-17 13:29N 34°11' W 077°57'0 0.0
2018-Feb-17 12:59N 34°11' W 077°57'0 0.0
2018-Feb-17 12:29N 34°11' W 077°57'0 0.0
2018-Feb-17 11:59N 34°11' W 077°57'0 0.0
2018-Feb-17 11:29N 34°11' W 077°57'124 4.8
2018-Feb-16 09:35N 32°36' W 079°31'1 8.6
2018-Feb-16 09:30N 32°36' W 079°32'610.7
2018-Feb-16 08:57N 32°39' W 079°39'1313.8
2018-Feb-16 08:01N 32°45' W 079°52'014.4
2018-Feb-16 08:00N 32°45' W 079°52'4 8.3
2018-Feb-16 07:30N 32°49' W 079°54'55 2.0
2018-Feb-15 03:38N 31°56' W 080°13'1 9.6
2018-Feb-15 03:30N 31°56' W 080°14'5 9.6
2018-Feb-15 02:58N 31°56' W 080°20'4 9.1
2018-Feb-15 02:30N 31°55' W 080°25'5 9.7
2018-Feb-15 02:00N 31°55' W 080°31'5 9.7
2018-Feb-15 01:30N 31°55' W 080°36'5 9.6
2018-Feb-15 01:00N 31°57' W 080°42'5 9.7
2018-Feb-15 00:31N 31°59' W 080°46'713.1
2018-Feb-15 00:00N 32°02' W 080°54'510.9
2018-Feb-14 23:30N 32°05' W 080°59'4 7.9
2018-Feb-14 23:00N 32°05' W 081°04'2 4.6
2018-Feb-14 22:30N 32°06' W 081°06'2 4.5
2018-Feb-14 22:00N 32°07' W 081°08'1 1.7
2018-Feb-14 21:30N 32°08' W 081°09'0 0.1
2018-Feb-14 21:00N 32°08' W 081°09'0 0.0
2018-Feb-14 20:30N 32°08' W 081°09'0 0.0
2018-Feb-14 19:42N 32°08' W 081°09'0 0.0
2018-Feb-14 19:30N 32°08' W 081°09'0 0.0
2018-Feb-14 19:00N 32°08' W 081°09'0 0.0
2018-Feb-14 18:30N 32°08' W 081°09'0 0.0
2018-Feb-14 18:00N 32°08' W 081°09'0 0.0
2018-Feb-14 17:30N 32°08' W 081°09'0 0.0
2018-Feb-14 17:00N 32°08' W 081°09'0 0.0
2018-Feb-14 16:30N 32°08' W 081°09'0 0.0
2018-Feb-14 16:00N 32°08' W 081°09'0 0.0
2018-Feb-14 15:30N 32°08' W 081°09'0 0.0
2018-Feb-14 15:00N 32°08' W 081°09'0 0.0
2018-Feb-14 14:30N 32°08' W 081°09'0 0.0
2018-Feb-14 13:54N 32°08' W 081°09'0 0.0
2018-Feb-14 13:30N 32°08' W 081°09'0 0.0
2018-Feb-14 13:00N 32°08' W 081°09'0 0.0
2018-Feb-14 12:30N 32°08' W 081°09'0 0.0
2018-Feb-14 12:00N 32°08' W 081°09'0 0.0
2018-Feb-14 11:30N 32°08' W 081°09'0 0.0
2018-Feb-14 11:00N 32°08' W 081°09'0 0.0
2018-Feb-14 10:30N 32°08' W 081°09'0 0.0
2018-Feb-14 09:54N 32°08' W 081°09'0 0.0
2018-Feb-14 09:30N 32°08' W 081°09'0 0.0
2018-Feb-14 09:00N 32°08' W 081°09'0 0.0
2018-Feb-14 08:30N 32°08' W 081°09'0 0.0
2018-Feb-14 08:00N 32°08' W 081°09'0 0.0
2018-Feb-14 07:30N 32°08' W 081°09'0 0.0
2018-Feb-14 07:00N 32°08' W 081°09'0 0.0
2018-Feb-14 06:30N 32°08' W 081°09'0 0.0
2018-Feb-14 06:00N 32°08' W 081°09'0 0.0
2018-Feb-14 05:30N 32°08' W 081°09'0 0.0
2018-Feb-14 05:00N 32°08' W 081°09'0 0.1
2018-Feb-14 04:24N 32°08' W 081°09'0 0.1
2018-Feb-14 04:00N 32°08' W 081°09'0 0.0
2018-Feb-14 03:29N 32°08' W 081°09'0 0.0
2018-Feb-14 02:59N 32°08' W 081°09'0 0.0
2018-Feb-14 02:29N 32°08' W 081°09'0 0.0
2018-Feb-14 01:59N 32°08' W 081°09'0 0.0
2018-Feb-14 01:29N 32°08' W 081°09'0 0.0
2018-Feb-14 00:59N 32°08' W 081°09'0 0.0
2018-Feb-14 00:29N 32°08' W 081°09'0 0.0
2018-Feb-13 23:59N 32°08' W 081°09'0 0.1
2018-Feb-13 23:31N 32°08' W 081°09'2 3.0
2018-Feb-13 23:00N 32°07' W 081°08'3 6.0
2018-Feb-13 22:31N 32°05' W 081°05'3 5.0
2018-Feb-13 22:00N 32°05' W 081°02'4 8.2
2018-Feb-13 21:30N 32°04' W 080°57'611.8
2018-Feb-13 21:00N 32°02' W 080°51'714.5
2018-Feb-13 20:30N 31°58' W 080°44'510.2
2018-Feb-13 20:00N 31°57' W 080°38'1 1.7
2018-Feb-13 19:27N 31°58' W 080°37'0 0.0
2018-Feb-13 18:57N 31°58' W 080°37'0 0.0
2018-Feb-13 18:15N 31°58' W 080°37'0 0.0
2018-Feb-13 17:57N 31°58' W 080°37'0 0.0
2018-Feb-13 11:38N 31°58' W 080°37'0 0.0
2018-Feb-13 11:08N 31°58' W 080°37'0 0.1
2018-Feb-13 10:56N 31°58' W 080°37'0 0.0
2018-Feb-13 10:20N 31°58' W 080°37'0 0.0
2018-Feb-13 09:56N 31°58' W 080°37'0 0.0
2018-Feb-13 09:20N 31°58' W 080°37'0 0.0
2018-Feb-13 08:50N 31°58' W 080°37'0 0.0
2018-Feb-13 08:26N 31°58' W 080°37'0 0.0
2018-Feb-13 07:56N 31°58' W 080°37'0 0.0
2018-Feb-13 04:50N 31°58' W 080°37'0 0.1
2018-Feb-13 04:26N 31°58' W 080°37'0 0.1
2018-Feb-13 03:56N 31°58' W 080°37'0 0.0
2018-Feb-13 03:08N 31°58' W 080°37'0 0.0
2018-Feb-13 02:44N 31°58' W 080°37'0 0.1
2018-Feb-13 00:50N 31°58' W 080°37'0 0.1
2018-Feb-13 00:26N 31°58' W 080°37'0 0.1
2018-Feb-12 23:44N 31°58' W 080°37'0 0.1
2018-Feb-12 23:26N 31°58' W 080°37'0 0.1
2018-Feb-12 22:56N 31°58' W 080°37'0 0.0
2018-Feb-12 21:44N 31°58' W 080°37'0 0.0
2018-Feb-12 21:26N 31°58' W 080°37'0 0.0
2018-Feb-12 20:56N 31°58' W 080°37'0 0.1
2018-Feb-12 20:26N 31°58' W 080°37'0 0.0
2018-Feb-12 19:56N 31°58' W 080°37'0 0.0
2018-Feb-12 19:26N 31°58' W 080°37'0 0.0
2018-Feb-12 18:56N 31°58' W 080°37'0 0.0
2018-Feb-12 18:26N 31°58' W 080°37'0 0.0
2018-Feb-12 17:50N 31°58' W 080°37'0 0.1
2018-Feb-12 17:26N 31°58' W 080°37'0 0.3
2018-Feb-12 16:56N 31°58' W 080°37'0 0.2
2018-Feb-12 16:26N 31°58' W 080°37'0 0.1
2018-Feb-12 15:56N 31°58' W 080°37'0 0.1
2018-Feb-12 15:08N 31°58' W 080°37'0 0.0
2018-Feb-12 14:56N 31°58' W 080°37'0 0.0
2018-Feb-12 14:26N 31°58' W 080°37'0 0.0
2018-Feb-12 13:56N 31°58' W 080°37'0 0.0
2018-Feb-12 13:26N 31°58' W 080°37'0 0.0
2018-Feb-12 12:56N 31°58' W 080°37'0 0.1
2018-Feb-12 12:26N 31°58' W 080°37'0 0.1
2018-Feb-12 11:56N 31°58' W 080°37'0 0.1
2018-Feb-12 11:26N 31°58' W 080°37'0 0.1
2018-Feb-12 10:56N 31°58' W 080°37'0 0.1
2018-Feb-12 10:26N 31°58' W 080°37'0 0.0
2018-Feb-12 09:56N 31°58' W 080°37'0 0.0
2018-Feb-12 09:26N 31°58' W 080°37'0 0.0
2018-Feb-12 08:56N 31°58' W 080°37'0 0.1
2018-Feb-12 08:02N 31°58' W 080°37'0 0.3
2018-Feb-12 07:56N 31°58' W 080°37'1 3.2
2018-Feb-12 07:31N 31°57' W 080°38'3 6.1
2018-Feb-12 07:00N 31°54' W 080°36'5 9.0
2018-Feb-12 06:30N 31°51' W 080°32'  
Track history (hours):
 
Tides and Currents Weather Stations Pressure Air Temp Water Temp Dewpoint Dewpoint Depression Visibility Wind Speed Wind Dir Waves Ship Positions

MSC Mara

Last reported at 2018-Feb-18 01:52 UTC. Time now 2018-Feb-21 07:28 UTC.
Position N 34°11' W 077°57'.

Length 294 m; draft 11.5 m.

Type: Ship (hazmat cat C). MMSI: 538002955.

Date/timePositionNaut miles runAvg speedWind from/ knotsBaromVisibWave heightAir tempDewpointWater temp
2018-Feb-18 01:52N 34°11' W 077°57'2 5.3
2018-Feb-18 01:30N 34°13' W 077°57'1 2.7
2018-Feb-18 01:00N 34°11' W 077°57'0 0.0
2018-Feb-18 00:30N 34°11' W 077°57'0 0.0
2018-Feb-18 00:00N 34°11' W 077°57'0 0.0
2018-Feb-17 23:30N 34°11' W 077°57'0 0.0
2018-Feb-17 22:56N 34°11' W 077°57'0 0.0
2018-Feb-17 22:29N 34°11' W 077°57'0 0.0
2018-Feb-17 21:59N 34°11' W 077°57'0 0.0
2018-Feb-17 21:26N 34°11' W 077°57'0 0.0
2018-Feb-17 20:59N 34°11' W 077°57'0 0.0
2018-Feb-17 20:26N 34°11' W 077°57'0 0.0
2018-Feb-17 19:56N 34°11' W 077°57'0 0.0
2018-Feb-17 19:29N 34°11' W 077°57'0 0.0
2018-Feb-17 18:59N 34°11' W 077°57'0 0.0
2018-Feb-17 18:26N 34°11' W 077°57'0 0.0
2018-Feb-17 17:59N 34°11' W 077°57'0 0.0
2018-Feb-17 17:26N 34°11' W 077°57'0 0.1
2018-Feb-17 16:59N 34°11' W 077°57'0 0.1
2018-Feb-17 16:26N 34°11' W 077°57'0 0.0
2018-Feb-17 15:59N 34°11' W 077°57'0 0.0
2018-Feb-17 15:26N 34°11' W 077°57'0 0.0
2018-Feb-17 14:59N 34°11' W 077°57'0 0.0
2018-Feb-17 14:26N 34°11' W 077°57'0 0.0
2018-Feb-17 13:56N 34°11' W 077°57'0 0.0
2018-Feb-17 13:29N 34°11' W 077°57'0 0.0
2018-Feb-17 12:59N 34°11' W 077°57'0 0.0
2018-Feb-17 12:29N 34°11' W 077°57'0 0.0
2018-Feb-17 11:59N 34°11' W 077°57'0 0.0
2018-Feb-17 11:29N 34°11' W 077°57'124 4.8
2018-Feb-16 09:35N 32°36' W 079°31'1 8.6
2018-Feb-16 09:30N 32°36' W 079°32'610.7
2018-Feb-16 08:57N 32°39' W 079°39'1313.8
2018-Feb-16 08:01N 32°45' W 079°52'014.4
2018-Feb-16 08:00N 32°45' W 079°52'4 8.3
2018-Feb-16 07:30N 32°49' W 079°54'55 2.0
2018-Feb-15 03:38N 31°56' W 080°13'1 9.6
2018-Feb-15 03:30N 31°56' W 080°14'5 9.6
2018-Feb-15 02:58N 31°56' W 080°20'4 9.1
2018-Feb-15 02:30N 31°55' W 080°25'5 9.7
2018-Feb-15 02:00N 31°55' W 080°31'5 9.7
2018-Feb-15 01:30N 31°55' W 080°36'5 9.6
2018-Feb-15 01:00N 31°57' W 080°42'5 9.7
2018-Feb-15 00:31N 31°59' W 080°46'713.1
2018-Feb-15 00:00N 32°02' W 080°54'510.9
2018-Feb-14 23:30N 32°05' W 080°59'4 7.9
2018-Feb-14 23:00N 32°05' W 081°04'2 4.6
2018-Feb-14 22:30N 32°06' W 081°06'2 4.5
2018-Feb-14 22:00N 32°07' W 081°08'1 1.7
2018-Feb-14 21:30N 32°08' W 081°09'0 0.1
2018-Feb-14 21:00N 32°08' W 081°09'0 0.0
2018-Feb-14 20:30N 32°08' W 081°09'0 0.0
2018-Feb-14 19:42N 32°08' W 081°09'0 0.0
2018-Feb-14 19:30N 32°08' W 081°09'0 0.0
2018-Feb-14 19:00N 32°08' W 081°09'0 0.0
2018-Feb-14 18:30N 32°08' W 081°09'0 0.0
2018-Feb-14 18:00N 32°08' W 081°09'0 0.0
2018-Feb-14 17:30N 32°08' W 081°09'0 0.0
2018-Feb-14 17:00N 32°08' W 081°09'0 0.0
2018-Feb-14 16:30N 32°08' W 081°09'0 0.0
2018-Feb-14 16:00N 32°08' W 081°09'0 0.0
2018-Feb-14 15:30N 32°08' W 081°09'0 0.0
2018-Feb-14 15:00N 32°08' W 081°09'0 0.0
2018-Feb-14 14:30N 32°08' W 081°09'0 0.0
2018-Feb-14 13:54N 32°08' W 081°09'0 0.0
2018-Feb-14 13:30N 32°08' W 081°09'0 0.0
2018-Feb-14 13:00N 32°08' W 081°09'0 0.0
2018-Feb-14 12:30N 32°08' W 081°09'0 0.0
2018-Feb-14 12:00N 32°08' W 081°09'0 0.0
2018-Feb-14 11:30N 32°08' W 081°09'0 0.0
2018-Feb-14 11:00N 32°08' W 081°09'0 0.0
2018-Feb-14 10:30N 32°08' W 081°09'0 0.0
2018-Feb-14 09:54N 32°08' W 081°09'0 0.0
2018-Feb-14 09:30N 32°08' W 081°09'0 0.0
2018-Feb-14 09:00N 32°08' W 081°09'0 0.0
2018-Feb-14 08:30N 32°08' W 081°09'0 0.0
2018-Feb-14 08:00N 32°08' W 081°09'0 0.0
2018-Feb-14 07:30N 32°08' W 081°09'0 0.0
2018-Feb-14 07:00N 32°08' W 081°09'0 0.0
2018-Feb-14 06:30N 32°08' W 081°09'0 0.0
2018-Feb-14 06:00N 32°08' W 081°09'0 0.0
2018-Feb-14 05:30N 32°08' W 081°09'0 0.0
2018-Feb-14 05:00N 32°08' W 081°09'0 0.1
2018-Feb-14 04:24N 32°08' W 081°09'0 0.1
2018-Feb-14 04:00N 32°08' W 081°09'0 0.0
2018-Feb-14 03:29N 32°08' W 081°09'0 0.0
2018-Feb-14 02:59N 32°08' W 081°09'0 0.0
2018-Feb-14 02:29N 32°08' W 081°09'0 0.0
2018-Feb-14 01:59N 32°08' W 081°09'0 0.0
2018-Feb-14 01:29N 32°08' W 081°09'0 0.0
2018-Feb-14 00:59N 32°08' W 081°09'0 0.0
2018-Feb-14 00:29N 32°08' W 081°09'0 0.0
2018-Feb-13 23:59N 32°08' W 081°09'0 0.1
2018-Feb-13 23:31N 32°08' W 081°09'2 3.0
2018-Feb-13 23:00N 32°07' W 081°08'3 6.0
2018-Feb-13 22:31N 32°05' W 081°05'3 5.0
2018-Feb-13 22:00N 32°05' W 081°02'4 8.2
2018-Feb-13 21:30N 32°04' W 080°57'611.8
2018-Feb-13 21:00N 32°02' W 080°51'714.5
2018-Feb-13 20:30N 31°58' W 080°44'510.2
2018-Feb-13 20:00N 31°57' W 080°38'1 1.7
2018-Feb-13 19:27N 31°58' W 080°37'0 0.0
2018-Feb-13 18:57N 31°58' W 080°37'0 0.0
2018-Feb-13 18:15N 31°58' W 080°37'0 0.0
2018-Feb-13 17:57N 31°58' W 080°37'0 0.0
2018-Feb-13 11:38N 31°58' W 080°37'0 0.0
2018-Feb-13 11:08N 31°58' W 080°37'0 0.1
2018-Feb-13 10:56N 31°58' W 080°37'0 0.0
2018-Feb-13 10:20N 31°58' W 080°37'0 0.0
2018-Feb-13 09:56N 31°58' W 080°37'0 0.0
2018-Feb-13 09:20N 31°58' W 080°37'0 0.0
2018-Feb-13 08:50N 31°58' W 080°37'0 0.0
2018-Feb-13 08:26N 31°58' W 080°37'0 0.0
2018-Feb-13 07:56N 31°58' W 080°37'0 0.0
2018-Feb-13 04:50N 31°58' W 080°37'0 0.1
2018-Feb-13 04:26N 31°58' W 080°37'0 0.1
2018-Feb-13 03:56N 31°58' W 080°37'0 0.0
2018-Feb-13 03:08N 31°58' W 080°37'0 0.0
2018-Feb-13 02:44N 31°58' W 080°37'0 0.1
2018-Feb-13 00:50N 31°58' W 080°37'0 0.1
2018-Feb-13 00:26N 31°58' W 080°37'0 0.1
2018-Feb-12 23:44N 31°58' W 080°37'0 0.1
2018-Feb-12 23:26N 31°58' W 080°37'0 0.1
2018-Feb-12 22:56N 31°58' W 080°37'0 0.0
2018-Feb-12 21:44N 31°58' W 080°37'0 0.0
2018-Feb-12 21:26N 31°58' W 080°37'0 0.0
2018-Feb-12 20:56N 31°58' W 080°37'0 0.1
2018-Feb-12 20:26N 31°58' W 080°37'0 0.0
2018-Feb-12 19:56N 31°58' W 080°37'0 0.0
2018-Feb-12 19:26N 31°58' W 080°37'0 0.0
2018-Feb-12 18:56N 31°58' W 080°37'0 0.0
2018-Feb-12 18:26N 31°58' W 080°37'0 0.0
2018-Feb-12 17:50N 31°58' W 080°37'0 0.1
2018-Feb-12 17:26N 31°58' W 080°37'0 0.3
2018-Feb-12 16:56N 31°58' W 080°37'0 0.2
2018-Feb-12 16:26N 31°58' W 080°37'0 0.1
2018-Feb-12 15:56N 31°58' W 080°37'0 0.1
2018-Feb-12 15:08N 31°58' W 080°37'0 0.0
2018-Feb-12 14:56N 31°58' W 080°37'0 0.0
2018-Feb-12 14:26N 31°58' W 080°37'0 0.0
2018-Feb-12 13:56N 31°58' W 080°37'0 0.0
2018-Feb-12 13:26N 31°58' W 080°37'0 0.0
2018-Feb-12 12:56N 31°58' W 080°37'0 0.1
2018-Feb-12 12:26N 31°58' W 080°37'0 0.1
2018-Feb-12 11:56N 31°58' W 080°37'0 0.1
2018-Feb-12 11:26N 31°58' W 080°37'0 0.1
2018-Feb-12 10:56N 31°58' W 080°37'0 0.1
2018-Feb-12 10:26N 31°58' W 080°37'0 0.0
2018-Feb-12 09:56N 31°58' W 080°37'0 0.0
2018-Feb-12 09:26N 31°58' W 080°37'0 0.0
2018-Feb-12 08:56N 31°58' W 080°37'0 0.1
2018-Feb-12 08:02N 31°58' W 080°37'0 0.3
2018-Feb-12 07:56N 31°58' W 080°37'1 3.2
2018-Feb-12 07:31N 31°57' W 080°38'3 6.1
2018-Feb-12 07:00N 31°54' W 080°36'5 9.0
2018-Feb-12 06:30N 31°51' W 080°32'  

Dump ship's entire track history